• Join FlightAware (Why Join?)
  • Login
  • US Flag 
11:08PM EDT


 

Airport Tracker/Info


-or-


 

Live Flight TrackerFlight Track Log ✈ PDT4207 ✈ 05-Mar-2014 ✈ KPHL - KBGM

Flight Track Log - Related Links

Times and Time Zones

All times are in EST time to prevent confusion due to time zone crossing. See the PDT4207 flight status page for this flight to view local times or setup timezone preferences in your user account.

Time Position Orientation Groundspeed Altitude Reporting Facility
EST Latitude Longitude Course Direction KTS MPH feet Rate Location/Type
09:42PM 39.9000 -75.2333 311° West 110 127 700  Level Philadelphia TRACON
09:44PM 39.9000 -75.3167 270° West 157 181 2,800 1,500 Climbing Philadelphia TRACON
09:45PM 40.0527 -75.4027 323° Northwest  Level FlightAware Approximate
09:45PM 39.9167 -75.3667 294° West 164 189 4,300  Level Philadelphia TRACON
09:45PM 39.9500 -75.3833 339° North 139 160 5,700 1,560 Climbing Philadelphia TRACON
09:46PM 40.1130 -75.4594 303° West  Level FlightAware Approximate
09:46PM 39.9833 -75.4000 339° North 138 159 7,300  Level Philadelphia TRACON
09:47PM 40.1745 -75.5117 311° West  Level FlightAware Approximate
09:47PM 40.0167 -75.4167 339° North 140 161 8,600  Level Philadelphia TRACON
09:48PM 40.2309 -75.5713 311° West  Level FlightAware Approximate
09:48PM 40.0378 -75.4369 324° Northwest 141 162 9,000  Level New York Center
09:49PM 40.0703 -75.4636 328° Northwest 182 209 9,000  Level New York Center
09:50PM 40.1208 -75.4994 332° Northwest 195 224 9,000 240 Level New York Center
09:51PM 40.1656 -75.5297 333° Northwest 206 237 9,500 660 Climbing New York Center
09:52PM 40.2122 -75.5572 336° Northwest 192 221 10,400 900 Climbing New York Center
09:53PM 40.2683 -75.5667 353° North 180 207 11,400 840 Climbing New York Center
09:54PM 40.3156 -75.5808 347° North 180 207 12,100 300 Climbing New York Center
09:55PM 40.3694 -75.5900 353° North 185 213 12,100  Level New York Center
09:56PM 40.4233 -75.5992 353° North 203 234 12,100  Level New York Center
09:57PM 40.4811 -75.6114 351° North 209 241 12,100  Level New York Center
09:58PM 40.5453 -75.6214 353° North 214 246 12,100  Level New York Center
09:59PM 40.6053 -75.6286 355° North 219 252 12,100  Level New York Center
10:00PM 40.6653 -75.6436 349° North 219 252 12,100  Level New York Center
10:01PM 40.7189 -75.6558 350° North 219 252 12,100  Level New York Center
10:02PM 40.7789 -75.6683 351° North 219 252 12,100 -420 Level New York Center
10:03PM 40.8447 -75.6894 346° North 219 252 11,300 -900 Descending New York Center
10:04PM 40.9108 -75.7025 352° North 227 261 10,300 -660 Descending New York Center
10:05PM 40.9769 -75.7128 353° North 233 268 10,000 -180 Descending New York Center
10:06PM 41.0389 -75.7256 351° North 233 268 10,000  Level New York Center
10:07PM 41.0967 -75.7406 349° North 222 255 10,000  Level New York Center
10:08PM 41.1503 -75.7500 352° North 217 250 10,100  Climbing New York Center
10:09PM 41.2081 -75.7656 349° North 217 250 10,100  Level New York Center
10:10PM 41.2658 -75.7781 351° North 217 250 10,100  Level New York Center
10:11PM 41.3217 -75.7903 351° North 217 250 10,100  Level New York Center
10:12PM 41.3794 -75.8031 351° North 217 250 10,100  Level New York Center
10:13PM 41.4372 -75.8128 353° North 217 250 10,100 -360 Level New York Center
10:14PM 41.4969 -75.8286 349° North 217 250 9,400 -960 Descending New York Center
10:15PM 41.5647 -75.8503 347° North 224 258 8,200 -720 Descending New York Center
10:16PM 41.6244 -75.8686 347° North 217 250 8,000 -120 Descending New York Center
10:17PM 41.6822 -75.8786 353° North 217 250 8,000  Level New York Center
10:18PM 41.7364 -75.8828 357° North 217 250 8,000  Level New York Center
10:19PM 41.7897 -75.8981 348° North 217 250 8,000 -60 Level New York Center
10:20PM 41.8536 -75.9114 351° North 217 250 7,900 -480 Descending New York Center
10:21PM 41.9114 -75.9269 349° North 212 244 7,100 -900 Descending New York Center
10:22PM 41.9758 -75.9292 359° North 218 251 6,200 -960 Descending New York Center
10:23PM 42.0261 -75.9219 North 212 244 5,200 -1,080 Descending New York Center
10:24PM 42.0786 -75.9119 North 194 223 4,100 -840 Descending New York Center
10:25PM 42.1161 -75.9092 North 160 184 3,600 -600 Descending New York Center
10:26PM 42.1425 -75.9281 332° Northwest 121 139 3,000 -600 Descending New York Center
10:27PM 42.1667 -75.9467 330° Northwest 103 119 2,400 -480 Descending New York Center
10:28PM 42.1908 -75.9628 334° Northwest 103 119 2,100 -300 Descending New York Center